createdAt,value
2018-10-09T00:00:18.572Z,96101.48
2018-10-09T00:02:53.102Z,96111.89
2018-10-09T00:05:27.832Z,96109.27
2018-10-09T00:08:02.373Z,96102.74
2018-10-09T00:10:37.288Z,96101.08
2018-10-09T00:13:11.612Z,96106.55
2018-10-09T00:15:46.742Z,96108.81
2018-10-09T00:18:27.169Z,96112.34
2018-10-09T00:21:01.543Z,96112.11
2018-10-09T00:23:36.437Z,96120.56
2018-10-09T00:26:11.557Z,96118.07
2018-10-09T00:28:46.275Z,96115.12
2018-10-09T00:31:20.832Z,96112.66
2018-10-09T00:33:55.540Z,96107.06
2018-10-09T00:36:30.155Z,96107.02
2018-10-09T00:39:07.000Z,96104.66
2018-10-09T00:41:41.704Z,96105.60
2018-10-09T00:44:16.787Z,96104.89
2018-10-09T00:46:51.858Z,96107.95
2018-10-09T00:49:26.409Z,96109.24
2018-10-09T00:52:01.580Z,96108.98
2018-10-09T00:54:36.430Z,96111.09
2018-10-09T00:57:10.911Z,96110.91
2018-10-09T00:59:45.647Z,96116.74
2018-10-09T01:02:20.107Z,96112.80
2018-10-09T01:04:56.067Z,96112.59
2018-10-09T01:07:30.666Z,96104.94
2018-10-09T01:10:05.267Z,96108.58
2018-10-09T01:12:40.255Z,96111.55
2018-10-09T01:15:14.831Z,96104.05
2018-10-09T01:17:49.477Z,96112.79
2018-10-09T01:20:31.250Z,96112.11
2018-10-09T01:23:07.226Z,96108.88
2018-10-09T01:25:42.096Z,96110.45
2018-10-09T01:28:16.655Z,96110.45
2018-10-09T01:30:51.048Z,96111.84
2018-10-09T01:33:25.787Z,96112.81
2018-10-09T01:36:00.291Z,96117.34
2018-10-09T01:38:34.979Z,96109.39
2018-10-09T01:41:09.276Z,96112.27
2018-10-09T01:43:43.676Z,96115.13
2018-10-09T01:46:18.060Z,96118.55
2018-10-09T01:48:52.477Z,96114.45
2018-10-09T01:51:28.662Z,96116.44
2018-10-09T01:54:03.458Z,96118.78
2018-10-09T01:56:38.255Z,96117.66
2018-10-09T01:59:12.968Z,96115.99
2018-10-09T02:01:47.848Z,96110.28
2018-10-09T02:04:22.853Z,96110.59
2018-10-09T02:06:57.662Z,96110.67
2018-10-09T02:09:32.251Z,96108.61
2018-10-09T02:12:06.975Z,96111.72
2018-10-09T02:14:41.807Z,96118.19
2018-10-09T02:17:16.232Z,96118.30
2018-10-09T02:19:50.999Z,96116.36
2018-10-09T02:22:25.379Z,96119.16
2018-10-09T02:24:59.756Z,96113.57
2018-10-09T02:27:34.219Z,96113.94
2018-10-09T02:30:09.595Z,96108.72
2018-10-09T02:32:44.133Z,96107.41
2018-10-09T02:35:19.524Z,96108.17
2018-10-09T02:37:53.891Z,96103.70
2018-10-09T02:40:29.347Z,96107.73
2018-10-09T02:43:03.708Z,96102.20
2018-10-09T02:45:38.612Z,96106.23
2018-10-09T02:48:12.864Z,96107.17
2018-10-09T02:50:47.574Z,96103.57
2018-10-09T02:53:22.041Z,96101.83
2018-10-09T02:55:57.396Z,96094.62
2018-10-09T02:58:32.100Z,96092.83
2018-10-09T03:01:06.940Z,96090.34
2018-10-09T03:03:41.829Z,96088.67
2018-10-09T03:06:16.936Z,96085.38
2018-10-09T03:08:51.279Z,96089.58
2018-10-09T03:11:26.136Z,96091.00
2018-10-09T03:14:00.623Z,96090.37
2018-10-09T03:16:35.171Z,96089.88
2018-10-09T03:19:10.019Z,96091.00
2018-10-09T03:21:44.339Z,96094.42
2018-10-09T03:24:18.771Z,96092.62
2018-10-09T03:26:53.760Z,96089.83
2018-10-09T03:29:28.903Z,96080.44
2018-10-09T03:32:03.983Z,96080.94
2018-10-09T03:34:38.564Z,96082.80
2018-10-09T03:37:13.312Z,96082.80
2018-10-09T03:39:48.175Z,96083.80
2018-10-09T03:42:22.763Z,96081.94
2018-10-09T03:44:57.205Z,96076.72
2018-10-09T03:47:32.540Z,96083.23
2018-10-09T03:50:07.175Z,96089.42
2018-10-09T03:52:41.701Z,96092.53
2018-10-09T03:55:16.363Z,96094.45
2018-10-09T03:57:51.659Z,96100.30
2018-10-09T04:00:26.354Z,96101.79
2018-10-09T04:03:01.567Z,96103.78
2018-10-09T04:05:36.051Z,96109.00
2018-10-09T04:08:10.547Z,96108.13
2018-10-09T04:10:45.365Z,96112.11
2018-10-09T04:13:19.963Z,96119.73
2018-10-09T04:15:54.417Z,96126.97
2018-10-09T04:18:28.879Z,96122.37
2018-10-09T04:21:03.283Z,96119.51
2018-10-09T04:23:38.208Z,96121.37
2018-10-09T04:26:13.143Z,96117.45
2018-10-09T04:28:47.964Z,96119.57
2018-10-09T04:31:22.448Z,96120.19
2018-10-09T04:33:57.357Z,96116.16
2018-10-09T04:36:32.112Z,96113.35
2018-10-09T04:39:08.336Z,96110.88
2018-10-09T04:41:43.575Z,96111.92
2018-10-09T04:44:18.144Z,96105.58
2018-10-09T04:46:53.810Z,96112.73
2018-10-09T04:49:28.324Z,96112.42
2018-10-09T04:52:03.261Z,96114.20
2018-10-09T04:54:38.089Z,96109.94
2018-10-09T04:57:12.739Z,96112.55
2018-10-09T04:59:47.362Z,96115.66
2018-10-09T05:02:22.651Z,96115.16
2018-10-09T05:04:57.084Z,96122.34
2018-10-09T05:07:32.028Z,96119.58
2018-10-09T05:10:06.828Z,96118.23
2018-10-09T05:12:41.351Z,96115.94
2018-10-09T05:15:16.136Z,96122.09
2018-10-09T05:17:50.713Z,96126.13
2018-10-09T05:20:26.183Z,96125.52
2018-10-09T05:23:00.849Z,96124.45
2018-10-09T05:25:35.627Z,96126.34
2018-10-09T05:28:12.647Z,96131.14
2018-10-09T05:30:47.420Z,96131.57
2018-10-09T05:33:22.120Z,96130.27
2018-10-09T05:35:56.587Z,96128.84
2018-10-09T05:38:31.168Z,96123.42
2018-10-09T05:41:05.844Z,96123.42
2018-10-09T05:43:51.117Z,96120.31
2018-10-09T05:46:25.679Z,96124.05
2018-10-09T05:49:00.540Z,96122.05
2018-10-09T05:51:35.031Z,96113.03
2018-10-09T05:54:09.447Z,96113.16
2018-10-09T05:56:44.113Z,96114.58
2018-10-09T05:59:18.980Z,96118.19
2018-10-09T06:01:53.484Z,96118.62
2018-10-09T06:04:28.002Z,96121.66
2018-10-09T06:07:02.650Z,96124.02
2018-10-09T06:09:37.335Z,96127.71
2018-10-09T06:12:12.163Z,96119.19
2018-10-09T06:14:46.962Z,96119.55
2018-10-09T06:17:21.529Z,96119.19
2018-10-09T06:19:56.589Z,96119.73
2018-10-09T06:22:31.131Z,96125.20
2018-10-09T06:25:06.027Z,96127.20
2018-10-09T06:27:40.880Z,96130.55
2018-10-09T06:30:15.418Z,96120.05
2018-10-09T06:32:50.435Z,96133.27
2018-10-09T06:35:24.982Z,96138.73
2018-10-09T06:37:59.391Z,96132.27
2018-10-09T06:40:33.860Z,96135.80
2018-10-09T06:43:08.783Z,96141.27
2018-10-09T06:45:43.385Z,96141.52
2018-10-09T06:48:18.202Z,96144.59
2018-10-09T06:50:53.249Z,96151.11
2018-10-09T06:53:28.108Z,96149.16
2018-10-09T06:56:03.204Z,96149.11
2018-10-09T06:58:37.835Z,96154.01
2018-10-09T07:01:13.159Z,96150.32
2018-10-09T07:03:47.632Z,96155.22
2018-10-09T07:06:23.072Z,96159.55
2018-10-09T07:08:57.443Z,96170.64
2018-10-09T07:11:31.741Z,96179.66
2018-10-09T07:14:07.104Z,96178.66
2018-10-09T07:16:41.392Z,96186.67
2018-10-09T07:19:15.816Z,96185.92
2018-10-09T07:21:51.495Z,96179.77
2018-10-09T07:24:25.783Z,96183.79
2018-10-09T07:27:00.315Z,96184.99
2018-10-09T07:29:34.724Z,96181.99
2018-10-09T07:32:10.026Z,96182.65
2018-10-09T07:34:44.456Z,96183.86
2018-10-09T07:37:20.370Z,96189.76
2018-10-09T07:39:54.791Z,96196.67
2018-10-09T07:42:29.458Z,96198.03
2018-10-09T07:45:04.265Z,96195.11
2018-10-09T07:47:38.672Z,96204.38
2018-10-09T07:50:13.092Z,96206.25
2018-10-09T07:52:47.792Z,96208.85
2018-10-09T07:55:22.479Z,96210.07
2018-10-09T07:57:57.271Z,96212.39
2018-10-09T08:00:31.800Z,96210.09
2018-10-09T08:03:06.451Z,96209.23
2018-10-09T08:05:41.319Z,96215.33
2018-10-09T08:08:16.311Z,96207.88
2018-10-09T08:10:51.624Z,96205.59
2018-10-09T08:13:26.455Z,96211.27
2018-10-09T08:16:01.422Z,96206.06
2018-10-09T08:18:35.864Z,96205.58
2018-10-09T08:21:10.634Z,96204.48
2018-10-09T08:23:45.000Z,96207.33
2018-10-09T08:26:19.420Z,96204.19
2018-10-09T08:28:54.048Z,96209.33
2018-10-09T08:31:28.880Z,96211.57
2018-10-09T08:34:03.833Z,96207.42
2018-10-09T08:36:38.373Z,96206.91
2018-10-09T08:39:13.407Z,96211.33
2018-10-09T08:41:47.777Z,96201.84
2018-10-09T08:44:22.361Z,96202.89
2018-10-09T08:46:57.092Z,96198.58
2018-10-09T08:49:31.663Z,96198.52
2018-10-09T08:52:06.892Z,96197.81
2018-10-09T08:54:41.903Z,96202.00
2018-10-09T08:57:16.555Z,96203.00
2018-10-09T08:59:51.328Z,96201.20
2018-10-09T09:02:25.746Z,96208.04
2018-10-09T09:05:00.343Z,96205.36
2018-10-09T09:07:35.063Z,96212.83
2018-10-09T09:10:09.900Z,96214.34
2018-10-09T09:12:44.616Z,96213.02
2018-10-09T09:15:19.252Z,96207.09
2018-10-09T09:17:54.048Z,96215.85
2018-10-09T09:20:28.951Z,96211.61
2018-10-09T09:23:03.752Z,96218.75
2018-10-09T09:25:38.668Z,96215.80
2018-10-09T09:28:13.195Z,96214.16
2018-10-09T09:30:47.716Z,96217.88
2018-10-09T09:33:22.169Z,96217.58
2018-10-09T09:35:58.060Z,96218.44
2018-10-09T09:38:32.937Z,96219.80
2018-10-09T09:41:08.215Z,96222.48
2018-10-09T09:43:42.782Z,96216.95
2018-10-09T09:46:17.727Z,96215.31
2018-10-09T09:48:53.697Z,96213.37
2018-10-09T09:51:28.289Z,96218.11
2018-10-09T09:54:02.752Z,96217.61
2018-10-09T09:56:37.180Z,96217.12
2018-10-09T09:59:12.075Z,96217.86
2018-10-09T10:01:46.699Z,96221.52
2018-10-09T10:04:21.482Z,96220.53
2018-10-09T10:06:56.167Z,96223.50
2018-10-09T10:09:30.688Z,96220.88
2018-10-09T10:12:05.423Z,96224.09
2018-10-09T10:14:39.736Z,96220.17
2018-10-09T10:17:14.385Z,96210.15
2018-10-09T10:19:49.320Z,96208.11
2018-10-09T10:22:23.723Z,96213.75
2018-10-09T10:24:58.512Z,96213.28
2018-10-09T10:27:33.193Z,96217.12
2018-10-09T10:30:07.588Z,96216.76
2018-10-09T10:32:41.988Z,96214.00
2018-10-09T10:35:16.287Z,96210.22
2018-10-09T10:37:51.131Z,96207.45
2018-10-09T10:40:26.047Z,96212.72
2018-10-09T10:43:00.361Z,96215.93
2018-10-09T10:45:35.091Z,96218.73
2018-10-09T10:48:09.755Z,96214.41
2018-10-09T10:50:44.359Z,96220.09
2018-10-09T10:53:19.243Z,96215.27
2018-10-09T10:55:54.251Z,96213.22
2018-10-09T10:58:29.147Z,96207.95
2018-10-09T11:01:04.023Z,96212.19
2018-10-09T11:03:39.276Z,96207.50
2018-10-09T11:06:14.187Z,96201.94
2018-10-09T11:08:50.076Z,96201.90
2018-10-09T11:11:24.707Z,96196.98
2018-10-09T11:13:58.977Z,96192.36
2018-10-09T11:16:33.778Z,96193.67
2018-10-09T11:19:09.103Z,96192.34
2018-10-09T11:21:44.141Z,96196.89
2018-10-09T11:24:19.180Z,96194.68
2018-10-09T11:26:53.603Z,96187.42
2018-10-09T11:29:28.207Z,96178.06
2018-10-09T11:32:03.046Z,96183.33
2018-10-09T11:34:37.965Z,96176.72
2018-10-09T11:37:12.990Z,96183.50
2018-10-09T11:39:48.223Z,96180.75
2018-10-09T11:42:23.016Z,96170.34
2018-10-09T11:44:58.412Z,96174.91
2018-10-09T11:47:33.264Z,96174.58
2018-10-09T11:50:08.676Z,96167.97
2018-10-09T11:52:43.460Z,96176.74
2018-10-09T11:55:18.200Z,96167.40
2018-10-09T11:57:52.660Z,96166.70
2018-10-09T12:00:27.704Z,96159.70
2018-10-09T12:03:02.025Z,96149.73
2018-10-09T12:05:36.914Z,96149.70
2018-10-09T12:08:11.454Z,96153.11
2018-10-09T12:10:46.411Z,96147.55
2018-10-09T12:13:21.156Z,96146.72
2018-10-09T12:15:55.697Z,96147.61
2018-10-09T12:18:30.295Z,96150.39
2018-10-09T12:21:04.681Z,96146.97
2018-10-09T12:23:39.530Z,96143.24
2018-10-09T12:26:14.739Z,96140.20
2018-10-09T12:28:49.268Z,96138.69
2018-10-09T12:31:23.695Z,96137.16
2018-10-09T12:33:58.035Z,96134.25
2018-10-09T12:36:32.385Z,96139.25
2018-10-09T12:39:09.907Z,96131.98
2018-10-09T12:41:45.846Z,96130.30
2018-10-09T12:44:20.333Z,96124.70
2018-10-09T12:46:55.088Z,96129.66
2018-10-09T12:49:29.557Z,96124.53
2018-10-09T12:52:04.390Z,96127.22
2018-10-09T12:54:39.060Z,96120.67
2018-10-09T12:57:13.429Z,96116.68
2018-10-09T12:59:48.159Z,96115.52
2018-10-09T13:02:23.082Z,96122.24
2018-10-09T13:04:57.400Z,96120.80
2018-10-09T13:07:31.866Z,96114.70
2018-10-09T13:10:06.218Z,96117.91
2018-10-09T13:12:41.047Z,96111.83
2018-10-09T13:15:15.367Z,96117.92
2018-10-09T13:17:50.084Z,96122.05
2018-10-09T13:20:25.286Z,96125.09
2018-10-09T13:23:00.028Z,96111.55
2018-10-09T13:25:34.781Z,96115.47
2018-10-09T13:28:09.541Z,96116.64
2018-10-09T13:30:44.439Z,96116.95
2018-10-09T13:33:19.079Z,96119.50
2018-10-09T13:35:54.040Z,96122.15
2018-10-09T13:38:28.887Z,96116.40
2018-10-09T13:41:03.896Z,96112.66
2018-10-09T13:43:38.592Z,96113.04
2018-10-09T13:46:13.597Z,96116.06
2018-10-09T13:48:50.295Z,96107.52
2018-10-09T13:51:24.844Z,96107.55
2018-10-09T13:53:59.803Z,96107.95
2018-10-09T13:56:34.780Z,96109.46
2018-10-09T13:59:09.751Z,96101.40
2018-10-09T14:01:44.473Z,96106.02
2018-10-09T14:04:19.267Z,96104.86
2018-10-09T14:06:53.968Z,96098.37
2018-10-09T14:09:28.475Z,96098.83
2018-10-09T14:12:03.681Z,96100.02
2018-10-09T14:14:38.403Z,96094.22
2018-10-09T14:17:13.168Z,96104.69
2018-10-09T14:19:48.290Z,96098.47
2018-10-09T14:22:22.709Z,96096.95
2018-10-09T14:24:57.299Z,96098.11
2018-10-09T14:27:31.797Z,96095.47
2018-10-09T14:30:20.136Z,96097.48
2018-10-09T14:32:54.716Z,96092.33
2018-10-09T14:35:29.345Z,96090.07
2018-10-09T14:38:04.284Z,96080.72
2018-10-09T14:40:39.009Z,96076.99
2018-10-09T14:43:13.467Z,96085.09
2018-10-09T14:45:47.922Z,96080.43
2018-10-09T14:48:23.120Z,96082.96
2018-10-09T14:50:57.547Z,96082.39
2018-10-09T14:53:31.968Z,96078.82
2018-10-09T14:56:07.222Z,96079.08
2018-10-09T14:58:41.760Z,96080.48
2018-10-09T15:01:16.888Z,96078.88
2018-10-09T15:03:51.908Z,96074.14
2018-10-09T15:06:26.587Z,96076.98
2018-10-09T15:09:01.192Z,96076.86
2018-10-09T15:11:35.540Z,96083.25
2018-10-09T15:14:11.485Z,96080.94
2018-10-09T15:16:46.064Z,96075.16
2018-10-09T15:19:21.052Z,96079.73
2018-10-09T15:21:55.628Z,96080.33
2018-10-09T15:24:30.131Z,96070.71
2018-10-09T15:27:05.279Z,96076.06
2018-10-09T15:29:39.935Z,96069.34
2018-10-09T15:32:26.748Z,96077.45
2018-10-09T15:35:01.151Z,96077.66
2018-10-09T15:37:35.916Z,96080.41
2018-10-09T15:40:11.344Z,96086.55
2018-10-09T15:42:46.221Z,96089.66
2018-10-09T15:45:20.658Z,96091.81
2018-10-09T15:47:55.590Z,96088.52
2018-10-09T15:50:29.898Z,96089.25
2018-10-09T15:53:08.349Z,96083.19
2018-10-09T15:55:50.446Z,96089.67
2018-10-09T15:58:31.434Z,96088.00
2018-10-09T16:01:06.168Z,96083.92
2018-10-09T16:03:48.410Z,96082.80
2018-10-09T16:06:29.573Z,96081.13
2018-10-09T16:09:10.322Z,96081.27
2018-10-09T16:11:45.330Z,96079.93
2018-10-09T16:14:20.263Z,96086.55
2018-10-09T16:16:55.783Z,96084.82
2018-10-09T16:19:32.393Z,96082.14
2018-10-09T16:22:08.939Z,96084.56
2018-10-09T16:24:53.171Z,96086.21
2018-10-09T16:27:27.863Z,96091.61
2018-10-09T16:30:03.760Z,96084.86
2018-10-09T16:32:44.368Z,96078.70
2018-10-09T16:35:19.312Z,96077.11
2018-10-09T16:37:53.774Z,96083.67
2018-10-09T16:40:28.367Z,96076.94
2018-10-09T16:43:04.376Z,96071.14
2018-10-09T16:45:38.918Z,96066.59
2018-10-09T16:48:13.868Z,96063.98
2018-10-09T16:50:48.308Z,96064.26
2018-10-09T16:53:22.772Z,96060.33
2018-10-09T16:55:57.596Z,96063.42
2018-10-09T16:58:32.120Z,96067.76
2018-10-09T17:01:12.418Z,96066.81
2018-10-09T17:03:46.874Z,96064.56
2018-10-09T17:06:22.091Z,96067.98
2018-10-09T17:08:56.828Z,96065.15
2018-10-09T17:11:31.738Z,96071.16
2018-10-09T17:14:06.699Z,96068.02
2018-10-09T17:16:41.120Z,96080.50
2018-10-09T17:19:15.628Z,96079.45
2018-10-09T17:21:50.047Z,96070.94
2018-10-09T17:24:24.441Z,96076.56
2018-10-09T17:26:58.941Z,96080.75
2018-10-09T17:29:33.713Z,96091.75
2018-10-09T17:32:08.296Z,96100.97
2018-10-09T17:34:43.030Z,96099.98
2018-10-09T17:37:17.478Z,96089.60
2018-10-09T17:39:52.451Z,96096.34
2018-10-09T17:42:32.394Z,96094.61
2018-10-09T17:45:07.124Z,96087.62
2018-10-09T17:47:41.803Z,96092.13
2018-10-09T17:50:16.487Z,96103.28
2018-10-09T17:52:51.915Z,96102.90
2018-10-09T17:55:26.428Z,96100.36
2018-10-09T17:58:01.156Z,96098.20
2018-10-09T18:00:35.663Z,96093.64
2018-10-09T18:03:10.007Z,96099.37
2018-10-09T18:05:46.826Z,96095.21
2018-10-09T18:08:21.460Z,96097.28
2018-10-09T18:10:55.927Z,96096.98
2018-10-09T18:13:30.403Z,96098.47
2018-10-09T18:16:05.113Z,96100.20
2018-10-09T18:18:39.944Z,96100.47
2018-10-09T18:21:14.609Z,96106.23
2018-10-09T18:23:49.371Z,96112.64
2018-10-09T18:26:23.844Z,96107.30
2018-10-09T18:28:58.521Z,96112.14
2018-10-09T18:31:32.964Z,96109.91
2018-10-09T18:34:07.487Z,96110.66
2018-10-09T18:36:42.573Z,96116.89
2018-10-09T18:39:17.789Z,96101.88
2018-10-09T18:41:52.827Z,96109.47
2018-10-09T18:44:27.628Z,96109.13
2018-10-09T18:47:02.111Z,96109.00
2018-10-09T18:49:37.854Z,96111.42
2018-10-09T18:52:12.806Z,96104.53
2018-10-09T18:54:47.807Z,96100.36
2018-10-09T18:57:22.635Z,96094.55
2018-10-09T19:00:01.085Z,96097.46
2018-10-09T19:02:36.035Z,96100.78
2018-10-09T19:05:11.333Z,96103.13
2018-10-09T19:07:45.654Z,96096.48
2018-10-09T19:10:20.395Z,96100.21
2018-10-09T19:12:55.083Z,96107.94
2018-10-09T19:15:29.672Z,96109.47
2018-10-09T19:18:04.356Z,96110.16
2018-10-09T19:20:39.391Z,96111.17
2018-10-09T19:23:14.551Z,96114.33
2018-10-09T19:25:49.075Z,96108.66
2018-10-09T19:28:24.847Z,96110.52
2018-10-09T19:30:59.592Z,96110.84
2018-10-09T19:33:34.012Z,96106.36
2018-10-09T19:36:09.797Z,96108.52
2018-10-09T19:38:44.428Z,96119.45
2018-10-09T19:41:18.941Z,96116.72
2018-10-09T19:43:53.751Z,96126.20
2018-10-09T19:46:28.761Z,96128.36
2018-10-09T19:49:07.336Z,96129.39
2018-10-09T19:51:42.305Z,96129.39
2018-10-09T19:54:16.965Z,96129.10
2018-10-09T19:56:51.899Z,96126.67
2018-10-09T19:59:27.145Z,96132.11
2018-10-09T20:02:02.424Z,96132.25
2018-10-09T20:04:37.251Z,96129.06
2018-10-09T20:07:13.963Z,96129.28
2018-10-09T20:09:48.608Z,96137.77
2018-10-09T20:12:23.644Z,96139.95
2018-10-09T20:14:58.316Z,96140.80
2018-10-09T20:17:33.504Z,96145.17
2018-10-09T20:20:08.210Z,96143.59
2018-10-09T20:22:49.516Z,96150.42
2018-10-09T20:25:24.278Z,96152.91
2018-10-09T20:27:59.231Z,96157.00
2018-10-09T20:30:34.296Z,96155.70
2018-10-09T20:33:08.814Z,96158.64
2018-10-09T20:35:43.779Z,96159.17
2018-10-09T20:38:19.324Z,96159.02
2018-10-09T20:40:55.303Z,96159.02
2018-10-09T20:43:30.986Z,96160.19
2018-10-09T20:46:05.624Z,96160.01
2018-10-09T20:48:42.383Z,96160.53
2018-10-09T20:51:16.990Z,96160.84
2018-10-09T20:53:51.495Z,96162.81
2018-10-09T20:56:26.284Z,96157.31
2018-10-09T20:59:02.159Z,96156.02
2018-10-09T21:01:37.265Z,96156.56
2018-10-09T21:04:12.123Z,96148.61
2018-10-09T21:06:46.785Z,96146.48
2018-10-09T21:09:21.447Z,96144.37
2018-10-09T21:11:56.683Z,96149.75
2018-10-09T21:14:31.990Z,96139.55
2018-10-09T21:17:06.889Z,96140.55
2018-10-09T21:19:42.756Z,96138.92
2018-10-09T21:22:18.097Z,96136.17
2018-10-09T21:24:52.476Z,96130.02
2018-10-09T21:27:27.320Z,96132.94
2018-10-09T21:30:01.760Z,96131.98
2018-10-09T21:32:36.301Z,96136.70
2018-10-09T21:35:12.368Z,96129.53
2018-10-09T21:37:46.922Z,96129.22
2018-10-09T21:40:21.601Z,96135.40
2018-10-09T21:42:56.138Z,96134.44
2018-10-09T21:45:31.815Z,96133.14
2018-10-09T21:48:06.745Z,96132.01
2018-10-09T21:50:41.513Z,96131.54
2018-10-09T21:53:15.964Z,96130.41
2018-10-09T21:55:50.804Z,96132.67
2018-10-09T21:58:25.465Z,96130.39
2018-10-09T22:01:05.199Z,96131.05
2018-10-09T22:03:40.384Z,96132.34
2018-10-09T22:06:14.869Z,96122.44
2018-10-09T22:08:49.549Z,96122.92
2018-10-09T22:11:24.204Z,96126.51
2018-10-09T22:13:58.624Z,96120.95
2018-10-09T22:16:33.700Z,96122.55
2018-10-09T22:19:08.435Z,96127.39
2018-10-09T22:21:43.345Z,96121.52
2018-10-09T22:24:18.326Z,96127.38
2018-10-09T22:26:53.296Z,96121.13
2018-10-09T22:29:27.571Z,96119.34
2018-10-09T22:32:02.011Z,96124.14
2018-10-09T22:34:36.612Z,96118.59
2018-10-09T22:37:11.760Z,96119.02
2018-10-09T22:39:46.811Z,96131.02
2018-10-09T22:42:21.959Z,96123.95
2018-10-09T22:44:56.257Z,96121.17
2018-10-09T22:47:30.783Z,96119.30
2018-10-09T22:50:05.479Z,96121.72
2018-10-09T22:52:39.999Z,96113.37
2018-10-09T22:55:14.664Z,96112.34
2018-10-09T22:57:49.203Z,96109.25
2018-10-09T23:00:24.377Z,96108.44
2018-10-09T23:02:58.717Z,96107.90
2018-10-09T23:05:34.100Z,96111.00
2018-10-09T23:08:09.139Z,96105.97
2018-10-09T23:10:44.208Z,96104.44
2018-10-09T23:13:18.833Z,96104.44
2018-10-09T23:15:53.659Z,96097.79
2018-10-09T23:18:28.199Z,96099.80
2018-10-09T23:21:02.715Z,96101.42
2018-10-09T23:23:38.013Z,96090.01
2018-10-09T23:26:12.648Z,96088.65
2018-10-09T23:28:47.080Z,96077.39
2018-10-09T23:31:21.433Z,96080.94
2018-10-09T23:33:56.184Z,96078.47
2018-10-09T23:36:30.902Z,96079.91
2018-10-09T23:39:07.223Z,96078.03
2018-10-09T23:41:41.983Z,96073.09
2018-10-09T23:44:16.908Z,96072.04
2018-10-09T23:46:51.304Z,96076.92
2018-10-09T23:49:25.720Z,96077.18
2018-10-09T23:52:00.218Z,96075.70
2018-10-09T23:54:34.942Z,96078.93
2018-10-09T23:57:09.743Z,96075.33
2018-10-09T23:59:44.551Z,96067.81
